Terminal Aerodrome Forecast
Issued by NWS Amarillo, TX

Home | Current Version | Previous Version | Text Only | Print | Product List | Glossary On
Versions: 1 2 3 4 5 6 7 8 9 10 11 12 13 14 15 16 17
000
FTUS44 KAMA 071100
TAFAMA
TAF
KAMA 071136Z 0712/0812 02016KT 6SM -SHRA BR OVC007
      TEMPO 0712/0716 3SM -SHRA BR OVC010
     FM071800 02015G20KT P6SM VCSH OVC010
     FM080200 02008KT 3SM BR OVC008=

USA.gov is the U.S. government's official web portal to all federal, state and local government web resources and services.